createdAt,value
2023-05-21T00:00:27.052Z,18.63
2023-05-21T00:04:40.919Z,18.60
2023-05-21T00:08:54.170Z,18.52
2023-05-21T00:13:06.591Z,18.48
2023-05-21T00:17:18.977Z,18.46
2023-05-21T00:21:31.964Z,18.39
2023-05-21T00:25:45.510Z,18.37
2023-05-21T00:29:58.030Z,18.46
2023-05-21T00:34:10.429Z,18.50
2023-05-21T00:38:23.611Z,18.41
2023-05-21T00:42:40.260Z,18.56
2023-05-21T00:46:56.446Z,18.45
2023-05-21T00:51:09.282Z,18.34
2023-05-21T00:55:22.204Z,18.23
2023-05-21T00:59:34.966Z,18.18
2023-05-21T01:03:49.091Z,18.08
2023-05-21T01:08:02.283Z,17.98
2023-05-21T01:12:15.681Z,18.04
2023-05-21T01:16:28.180Z,18.04
2023-05-21T01:20:42.813Z,17.97
2023-05-21T01:24:55.937Z,17.90
2023-05-21T01:29:13.423Z,17.71
2023-05-21T01:33:48.062Z,17.88
2023-05-21T01:38:20.648Z,17.58
2023-05-21T01:42:36.484Z,17.43
2023-05-21T01:46:50.081Z,17.60
2023-05-21T01:51:06.956Z,17.28
2023-05-21T01:55:26.240Z,17.35
2023-05-21T01:59:39.178Z,17.22
2023-05-21T02:03:51.775Z,17.07
2023-05-21T02:08:05.771Z,17.16
2023-05-21T02:12:18.253Z,17.23
2023-05-21T02:16:30.842Z,17.18
2023-05-21T02:20:43.954Z,17.35
2023-05-21T02:24:56.336Z,17.20
2023-05-21T02:29:09.191Z,17.17
2023-05-21T02:33:22.212Z,17.27
2023-05-21T02:37:34.724Z,17.32
2023-05-21T02:41:47.673Z,17.21
2023-05-21T02:46:00.716Z,16.98
2023-05-21T02:50:14.637Z,16.87
2023-05-21T02:54:35.738Z,16.79
2023-05-21T02:58:48.222Z,16.95
2023-05-21T03:03:03.631Z,16.91
2023-05-21T03:07:19.320Z,16.91
2023-05-21T03:11:32.292Z,16.95
2023-05-21T03:15:44.806Z,16.81
2023-05-21T03:19:57.195Z,16.65
2023-05-21T03:24:10.009Z,16.68
2023-05-21T03:28:22.485Z,16.76
2023-05-21T03:32:38.232Z,16.66
2023-05-21T03:36:51.611Z,16.61
2023-05-21T03:41:04.693Z,16.54
2023-05-21T03:45:17.161Z,16.66
2023-05-21T03:49:51.743Z,16.52
2023-05-21T03:54:05.481Z,16.65
2023-05-21T03:58:18.674Z,16.56
2023-05-21T04:02:32.187Z,16.56
2023-05-21T04:06:44.640Z,16.70
2023-05-21T04:10:58.268Z,16.94
2023-05-21T04:15:11.066Z,17.19
2023-05-21T04:19:23.516Z,17.43
2023-05-21T04:23:38.194Z,17.56
2023-05-21T04:27:57.304Z,17.92
2023-05-21T04:32:11.270Z,19.07
2023-05-21T04:36:24.695Z,21.16
2023-05-21T04:40:37.087Z,21.08
2023-05-21T04:44:49.782Z,20.19
2023-05-21T04:49:06.138Z,21.93
2023-05-21T04:53:18.569Z,22.11
2023-05-21T04:57:31.149Z,22.46
2023-05-21T05:01:44.832Z,23.08
2023-05-21T05:05:57.235Z,23.50
2023-05-21T05:10:11.648Z,23.36
2023-05-21T05:14:24.164Z,24.12
2023-05-21T05:18:37.080Z,24.27
2023-05-21T05:22:49.753Z,24.91
2023-05-21T05:27:03.027Z,25.16
2023-05-21T05:31:16.193Z,24.94
2023-05-21T05:35:29.335Z,23.78
2023-05-21T05:39:42.041Z,22.96
2023-05-21T05:43:54.527Z,22.89
2023-05-21T05:48:08.041Z,22.71
2023-05-21T05:52:20.795Z,22.47
2023-05-21T05:56:33.500Z,22.01
2023-05-21T06:00:46.400Z,22.67
2023-05-21T06:04:58.924Z,22.81
2023-05-21T06:09:11.403Z,21.94
2023-05-21T06:13:23.818Z,21.57
2023-05-21T06:17:36.572Z,21.42
2023-05-21T06:21:49.365Z,21.63
2023-05-21T06:26:02.927Z,21.96
2023-05-21T06:30:15.609Z,21.95
2023-05-21T06:34:29.072Z,22.01
2023-05-21T06:38:42.946Z,22.53
2023-05-21T06:42:56.702Z,22.76
2023-05-21T06:47:27.725Z,23.02
2023-05-21T06:51:40.410Z,22.70
2023-05-21T06:55:54.060Z,22.31
2023-05-21T07:00:26.832Z,23.07
2023-05-21T07:04:39.456Z,23.17
2023-05-21T07:08:52.052Z,23.24
2023-05-21T07:13:04.786Z,23.19
2023-05-21T07:17:17.370Z,23.77
2023-05-21T07:21:29.927Z,23.09
2023-05-21T07:25:42.672Z,23.75
2023-05-21T07:29:55.237Z,23.59
2023-05-21T07:34:08.336Z,23.47
2023-05-21T07:38:20.886Z,23.75
2023-05-21T07:42:33.388Z,23.48
2023-05-21T07:46:46.827Z,24.72
2023-05-21T07:51:00.361Z,24.11
2023-05-21T07:55:13.738Z,24.43
2023-05-21T07:59:26.865Z,24.85
2023-05-21T08:03:39.728Z,24.30
2023-05-21T08:07:53.025Z,25.42
2023-05-21T08:12:06.861Z,25.41
2023-05-21T08:16:21.535Z,25.52
2023-05-21T08:20:34.598Z,24.78
2023-05-21T08:24:48.591Z,24.33
2023-05-21T08:29:01.159Z,25.76
2023-05-21T08:33:14.390Z,25.40
2023-05-21T08:37:26.909Z,24.50
2023-05-21T08:41:58.013Z,23.98
2023-05-21T08:46:11.338Z,23.91
2023-05-21T08:50:28.308Z,23.80
2023-05-21T08:54:46.067Z,24.05
2023-05-21T08:59:02.580Z,23.79
2023-05-21T09:03:22.808Z,24.34
2023-05-21T09:07:52.470Z,24.15
2023-05-21T09:12:38.405Z,23.98
2023-05-21T09:16:51.172Z,23.53
2023-05-21T09:21:27.329Z,23.87
2023-05-21T09:25:54.681Z,23.73
2023-05-21T09:30:15.333Z,23.82
2023-05-21T09:34:28.735Z,23.72
2023-05-21T09:38:42.877Z,24.40
2023-05-21T09:42:55.945Z,24.19
2023-05-21T09:47:09.979Z,23.81
2023-05-21T09:51:22.553Z,23.73
2023-05-21T09:55:39.697Z,23.54
2023-05-21T09:59:52.268Z,23.24
2023-05-21T10:04:08.939Z,23.49
2023-05-21T10:08:25.979Z,23.74
2023-05-21T10:12:40.131Z,23.08
2023-05-21T10:16:54.836Z,23.34
2023-05-21T10:21:09.092Z,23.29
2023-05-21T10:25:22.630Z,23.11
2023-05-21T10:29:37.441Z,22.95
2023-05-21T10:33:51.189Z,22.79
2023-05-21T10:38:05.338Z,22.65
2023-05-21T10:42:33.069Z,22.74
2023-05-21T10:47:09.603Z,22.66
2023-05-21T10:52:06.809Z,22.64
2023-05-21T10:56:26.064Z,22.85
2023-05-21T11:00:38.937Z,23.02
2023-05-21T11:04:59.408Z,23.19
2023-05-21T11:09:14.045Z,23.60
2023-05-21T11:13:27.576Z,22.82
2023-05-21T11:17:42.309Z,23.68
2023-05-21T11:21:55.951Z,22.81
2023-05-21T11:26:08.421Z,23.57
2023-05-21T11:30:20.937Z,22.93
2023-05-21T11:34:41.183Z,23.10
2023-05-21T11:39:24.234Z,23.12
2023-05-21T11:43:41.250Z,24.55
2023-05-21T11:47:53.945Z,25.25
2023-05-21T11:52:08.116Z,24.73
2023-05-21T11:56:20.917Z,25.39
2023-05-21T12:00:40.451Z,25.57
2023-05-21T12:04:53.038Z,25.37
2023-05-21T12:09:05.537Z,25.22
2023-05-21T12:13:17.927Z,25.52
2023-05-21T12:17:32.092Z,24.95
2023-05-21T12:21:44.684Z,24.28
2023-05-21T12:25:57.744Z,24.65
2023-05-21T12:30:10.434Z,24.90
2023-05-21T12:34:47.663Z,25.00
2023-05-21T12:39:00.325Z,24.50
2023-05-21T12:43:12.934Z,24.71
2023-05-21T12:47:27.209Z,24.35
2023-05-21T12:51:40.547Z,24.39
2023-05-21T12:55:56.676Z,24.38
2023-05-21T13:00:10.622Z,23.95
2023-05-21T13:04:24.563Z,23.97
2023-05-21T13:08:39.140Z,24.22
2023-05-21T13:12:52.875Z,23.61
2023-05-21T13:17:06.360Z,23.16
2023-05-21T13:21:19.115Z,23.12
2023-05-21T13:25:35.013Z,23.29
2023-05-21T13:29:47.422Z,23.27
2023-05-21T13:34:02.016Z,23.28
2023-05-21T13:38:14.533Z,23.82
2023-05-21T13:42:26.881Z,23.59
2023-05-21T13:46:39.848Z,23.20
2023-05-21T13:50:52.852Z,23.03
2023-05-21T13:55:05.955Z,23.12
2023-05-21T13:59:18.483Z,23.27
2023-05-21T14:03:31.463Z,23.47
2023-05-21T14:07:43.997Z,23.51
2023-05-21T14:11:57.483Z,23.04
2023-05-21T14:16:09.920Z,22.76
2023-05-21T14:20:22.294Z,22.73
2023-05-21T14:24:34.719Z,22.55
2023-05-21T14:28:47.202Z,22.76
2023-05-21T14:32:59.636Z,22.98
2023-05-21T14:37:13.345Z,23.05
2023-05-21T14:41:28.087Z,23.02
2023-05-21T14:45:41.326Z,23.13
2023-05-21T14:49:53.826Z,22.53
2023-05-21T14:54:06.270Z,22.60
2023-05-21T14:58:18.730Z,22.15
2023-05-21T15:02:31.415Z,22.18
2023-05-21T15:06:44.256Z,22.16
2023-05-21T15:10:57.600Z,21.98
2023-05-21T15:15:10.578Z,21.87
2023-05-21T15:19:23.080Z,21.97
2023-05-21T15:23:36.822Z,21.98
2023-05-21T15:27:50.568Z,21.88
2023-05-21T15:32:05.650Z,21.84
2023-05-21T15:36:18.076Z,21.86
2023-05-21T15:40:30.560Z,21.69
2023-05-21T15:44:43.220Z,21.69
2023-05-21T15:48:55.620Z,21.67
2023-05-21T15:53:08.041Z,21.52
2023-05-21T15:57:21.189Z,21.17
2023-05-21T16:01:34.933Z,20.73
2023-05-21T16:05:47.744Z,20.46
2023-05-21T16:10:00.156Z,20.34
2023-05-21T16:14:13.264Z,20.22
2023-05-21T16:18:25.714Z,20.02
2023-05-21T16:22:38.271Z,20.18
2023-05-21T16:26:50.754Z,20.13
2023-05-21T16:31:03.703Z,20.18
2023-05-21T16:35:18.305Z,19.88
2023-05-21T16:39:30.650Z,19.84
2023-05-21T16:43:43.212Z,19.91
2023-05-21T16:47:58.084Z,19.57
2023-05-21T16:52:10.752Z,19.10
2023-05-21T16:56:23.420Z,18.98
2023-05-21T17:00:36.328Z,19.18
2023-05-21T17:04:48.744Z,19.57
2023-05-21T17:09:03.496Z,19.61
2023-05-21T17:13:22.223Z,19.50
2023-05-21T17:17:36.495Z,19.48
2023-05-21T17:21:49.066Z,19.45
2023-05-21T17:26:02.356Z,19.42
2023-05-21T17:30:15.679Z,19.39
2023-05-21T17:34:30.655Z,19.28
2023-05-21T17:38:44.190Z,19.20
2023-05-21T17:42:56.745Z,19.24
2023-05-21T17:47:09.707Z,19.17
2023-05-21T17:51:22.416Z,19.19
2023-05-21T17:55:34.909Z,19.07
2023-05-21T17:59:48.042Z,19.03
2023-05-21T18:04:00.487Z,19.02
2023-05-21T18:08:12.948Z,19.07
2023-05-21T18:12:25.452Z,18.86
2023-05-21T18:16:38.004Z,18.78
2023-05-21T18:20:52.020Z,18.67
2023-05-21T18:25:08.601Z,18.47
2023-05-21T18:29:21.390Z,18.62
2023-05-21T18:33:33.949Z,18.72
2023-05-21T18:37:47.063Z,18.49
2023-05-21T18:42:12.273Z,18.28
2023-05-21T18:46:28.293Z,18.21
2023-05-21T18:50:40.814Z,18.16
2023-05-21T18:54:54.985Z,18.11
2023-05-21T18:59:08.102Z,18.07
2023-05-21T19:03:20.399Z,18.03
2023-05-21T19:07:32.823Z,18.02
2023-05-21T19:11:45.273Z,17.96
2023-05-21T19:15:58.853Z,18.04
2023-05-21T19:20:11.569Z,17.87
2023-05-21T19:24:24.011Z,17.92
2023-05-21T19:28:36.458Z,17.75
2023-05-21T19:32:49.200Z,17.90
2023-05-21T19:37:01.930Z,18.22
2023-05-21T19:41:15.897Z,17.88
2023-05-21T19:45:28.283Z,17.89
2023-05-21T19:49:43.163Z,17.75
2023-05-21T19:53:55.772Z,17.81
2023-05-21T19:58:09.370Z,17.69
2023-05-21T20:02:23.475Z,17.67
2023-05-21T20:06:36.406Z,17.64
2023-05-21T20:10:51.390Z,17.68
2023-05-21T20:15:06.916Z,17.86
2023-05-21T20:19:20.866Z,17.83
2023-05-21T20:23:33.283Z,17.64
2023-05-21T20:27:45.777Z,17.65
2023-05-21T20:31:58.741Z,17.74
2023-05-21T20:36:11.359Z,17.69
2023-05-21T20:40:23.943Z,17.82
2023-05-21T20:44:36.738Z,17.67
2023-05-21T20:48:49.824Z,17.83
2023-05-21T20:53:03.312Z,17.61
2023-05-21T20:57:17.235Z,17.80
2023-05-21T21:01:30.662Z,17.57
2023-05-21T21:05:43.178Z,17.36
2023-05-21T21:09:56.009Z,17.42
2023-05-21T21:14:08.967Z,17.44
2023-05-21T21:18:21.358Z,17.42
2023-05-21T21:22:34.389Z,17.28
2023-05-21T21:26:47.067Z,17.07
2023-05-21T21:30:59.607Z,17.12
2023-05-21T21:35:11.901Z,17.05
2023-05-21T21:39:26.400Z,16.92
2023-05-21T21:43:39.021Z,16.99
2023-05-21T21:47:51.404Z,17.07
2023-05-21T21:52:03.984Z,17.01
2023-05-21T21:56:16.752Z,17.00
2023-05-21T22:00:29.992Z,16.94
2023-05-21T22:04:44.078Z,17.11
2023-05-21T22:08:56.574Z,17.37
2023-05-21T22:13:09.379Z,17.17
2023-05-21T22:17:23.737Z,16.95
2023-05-21T22:21:36.318Z,16.99
2023-05-21T22:25:49.029Z,16.91
2023-05-21T22:30:03.952Z,17.07
2023-05-21T22:34:16.626Z,16.78
2023-05-21T22:38:29.001Z,16.71
2023-05-21T22:42:41.974Z,16.78
2023-05-21T22:47:01.054Z,16.94
2023-05-21T22:51:14.419Z,16.81
2023-05-21T22:55:26.918Z,16.60
2023-05-21T22:59:39.331Z,16.53
2023-05-21T23:03:51.930Z,16.57
2023-05-21T23:08:04.632Z,16.48
2023-05-21T23:12:17.236Z,16.55
2023-05-21T23:16:31.058Z,16.37
2023-05-21T23:20:44.071Z,16.34
2023-05-21T23:24:56.479Z,16.29
2023-05-21T23:29:08.961Z,16.32
2023-05-21T23:33:21.881Z,16.23
2023-05-21T23:37:34.308Z,16.25
2023-05-21T23:41:47.026Z,16.10
2023-05-21T23:45:59.513Z,16.12
2023-05-21T23:50:12.047Z,16.11
2023-05-21T23:54:24.384Z,16.10
2023-05-21T23:58:36.719Z,16.14
